createdAt,value
2017-08-17T00:00:00.764Z,18.26
2017-08-17T00:00:05.117Z,18.21
2017-08-17T00:00:09.225Z,18.25
2017-08-17T00:00:13.456Z,18.28
2017-08-17T00:00:17.811Z,18.32
2017-08-17T00:00:22.175Z,18.31
2017-08-17T00:00:26.623Z,18.26
2017-08-17T00:00:30.970Z,18.29
2017-08-17T00:00:35.437Z,18.26
2017-08-17T00:00:39.789Z,18.28
2017-08-17T00:00:44.244Z,18.26
2017-08-17T00:00:48.714Z,18.32
2017-08-17T00:00:53.170Z,18.28
2017-08-17T00:00:57.634Z,18.28
2017-08-17T00:01:01.975Z,18.2
2017-08-17T00:01:06.205Z,18.2
2017-08-17T00:01:10.451Z,18.28
2017-08-17T00:01:14.804Z,18.29
2017-08-17T00:01:18.917Z,18.19
2017-08-17T00:01:23.375Z,18.26
2017-08-17T00:01:27.842Z,18.21
2017-08-17T00:01:32.203Z,18.19
2017-08-17T00:01:36.304Z,18.21
2017-08-17T00:01:40.544Z,18.23
2017-08-17T00:01:44.880Z,18.28
2017-08-17T00:01:49.112Z,18.31
2017-08-17T00:01:53.591Z,18.21
2017-08-17T00:01:57.925Z,18.21
2017-08-17T00:02:02.371Z,18.23
2017-08-17T00:02:06.732Z,18.21
2017-08-17T00:02:10.988Z,18.25
2017-08-17T00:02:15.365Z,18.2
2017-08-17T00:02:19.704Z,18.29
2017-08-17T00:02:24.170Z,18.2
2017-08-17T00:02:28.741Z,18.28
2017-08-17T00:02:33.084Z,18.29
2017-08-17T00:02:37.546Z,18.31
2017-08-17T00:02:41.892Z,18.21
2017-08-17T00:02:46.362Z,18.23
2017-08-17T00:02:50.734Z,18.29
2017-08-17T00:02:55.200Z,18.31
2017-08-17T00:02:59.553Z,18.23
2017-08-17T00:03:04.125Z,18.21
2017-08-17T00:03:08.464Z,18.31
2017-08-17T00:03:12.707Z,18.21
2017-08-17T00:03:17.058Z,18.28
2017-08-17T00:03:21.307Z,18.21
2017-08-17T00:03:25.681Z,18.26
2017-08-17T00:03:30.025Z,18.23
2017-08-17T00:03:34.506Z,18.26
2017-08-17T00:03:38.977Z,18.23
2017-08-17T00:03:43.448Z,18.25
2017-08-17T00:03:47.910Z,18.29
2017-08-17T00:03:52.378Z,18.23
2017-08-17T00:03:56.751Z,18.2
2017-08-17T00:04:01.214Z,18.28
2017-08-17T00:04:05.682Z,18.21
2017-08-17T00:04:09.788Z,18.28
2017-08-17T00:04:14.160Z,18.2
2017-08-17T00:04:18.288Z,18.21
2017-08-17T00:04:22.634Z,18.23
2017-08-17T00:04:26.732Z,18.29
2017-08-17T00:04:30.970Z,18.21
2017-08-17T00:04:35.446Z,18.2
2017-08-17T00:04:39.900Z,18.23
2017-08-17T00:04:44.268Z,18.29
2017-08-17T00:04:48.601Z,18.21
2017-08-17T00:04:52.953Z,18.21
2017-08-17T00:04:57.400Z,18.26
2017-08-17T00:05:02.073Z,18.2
2017-08-17T00:05:06.325Z,18.26
2017-08-17T00:05:10.432Z,18.2
2017-08-17T00:05:14.883Z,18.29
2017-08-17T00:05:19.123Z,18.28
2017-08-17T00:05:23.364Z,18.26
2017-08-17T00:05:27.840Z,18.23
2017-08-17T00:05:32.191Z,18.21
2017-08-17T00:05:36.537Z,18.25
2017-08-17T00:05:41.008Z,18.21
2017-08-17T00:05:45.351Z,18.23
2017-08-17T00:05:49.812Z,18.28
2017-08-17T00:05:54.187Z,18.25
2017-08-17T00:05:58.657Z,18.29
2017-08-17T00:06:03.329Z,18.2
2017-08-17T00:06:07.580Z,18.25
2017-08-17T00:06:11.925Z,18.21
2017-08-17T00:06:16.387Z,18.28
2017-08-17T00:06:20.498Z,18.25
2017-08-17T00:06:24.976Z,18.2
2017-08-17T00:06:29.319Z,18.28
2017-08-17T00:06:33.538Z,18.28
2017-08-17T00:06:38.006Z,18.17
2017-08-17T00:06:42.337Z,18.28
2017-08-17T00:06:46.684Z,18.26
2017-08-17T00:06:51.022Z,18.21
2017-08-17T00:06:55.386Z,18.26
2017-08-17T00:06:59.861Z,18.21
2017-08-17T00:07:04.202Z,18.21
2017-08-17T00:07:08.665Z,18.23
2017-08-17T00:07:13.012Z,18.23
2017-08-17T00:07:17.344Z,18.21
2017-08-17T00:07:21.445Z,18.26
2017-08-17T00:07:25.679Z,18.26
2017-08-17T00:07:29.923Z,18.21
2017-08-17T00:07:34.380Z,18.29
2017-08-17T00:07:38.868Z,18.2
2017-08-17T00:07:43.341Z,18.14
2017-08-17T00:07:47.703Z,18.16
2017-08-17T00:07:51.926Z,18.21
2017-08-17T00:07:56.277Z,18.23
2017-08-17T00:08:00.633Z,18.19
2017-08-17T00:08:05.092Z,18.2
2017-08-17T00:08:09.220Z,18.25
2017-08-17T00:08:13.448Z,18.2
2017-08-17T00:08:17.680Z,18.23
2017-08-17T00:08:22.052Z,18.21
2017-08-17T00:08:26.404Z,18.26
2017-08-17T00:08:30.618Z,18.14
2017-08-17T00:08:35.082Z,18.28
2017-08-17T00:08:39.437Z,18.23
2017-08-17T00:08:43.795Z,18.2
2017-08-17T00:08:48.132Z,18.25
2017-08-17T00:08:52.477Z,18.26
2017-08-17T00:08:56.860Z,18.2
2017-08-17T00:09:01.321Z,18.19
2017-08-17T00:09:05.871Z,18.19
2017-08-17T00:09:10.345Z,18.14
2017-08-17T00:09:14.697Z,18.2
2017-08-17T00:09:19.045Z,18.2
2017-08-17T00:09:23.527Z,18.2
2017-08-17T00:09:27.883Z,18.25
2017-08-17T00:09:31.887Z,18.26
2017-08-17T00:09:36.263Z,18.2
2017-08-17T00:09:40.614Z,18.21
2017-08-17T00:09:45.083Z,18.21
2017-08-17T00:09:49.559Z,18.17
2017-08-17T00:09:53.899Z,18.2
2017-08-17T00:09:58.235Z,18.19
2017-08-17T00:10:02.680Z,18.16
2017-08-17T00:10:07.018Z,18.2
2017-08-17T00:10:11.357Z,18.16
2017-08-17T00:10:15.832Z,18.23
2017-08-17T00:10:20.174Z,18.2
2017-08-17T00:10:24.409Z,18.23
2017-08-17T00:10:28.767Z,18.2
2017-08-17T00:10:32.973Z,18.16
2017-08-17T00:10:37.315Z,18.19
2017-08-17T00:10:41.786Z,18.16
2017-08-17T00:10:46.123Z,18.21
2017-08-17T00:10:50.479Z,18.2
2017-08-17T00:10:54.832Z,18.19
2017-08-17T00:10:59.310Z,18.13
2017-08-17T00:11:03.813Z,18.16
2017-08-17T00:11:08.268Z,18.17
2017-08-17T00:11:12.500Z,18.25
2017-08-17T00:11:16.972Z,18.21
2017-08-17T00:11:20.963Z,18.26
2017-08-17T00:11:25.199Z,18.16
2017-08-17T00:11:29.661Z,18.23
2017-08-17T00:11:34.019Z,18.19
2017-08-17T00:11:38.373Z,18.19
2017-08-17T00:11:42.855Z,18.16
2017-08-17T00:11:47.078Z,18.19
2017-08-17T00:11:51.564Z,18.23
2017-08-17T00:11:56.029Z,18.23
2017-08-17T00:12:00.380Z,18.14
2017-08-17T00:12:04.773Z,18.25
2017-08-17T00:12:09.005Z,18.2
2017-08-17T00:12:13.221Z,18.19
2017-08-17T00:12:17.568Z,18.19
2017-08-17T00:12:22.023Z,18.2
2017-08-17T00:12:26.529Z,18.26
2017-08-17T00:12:31.001Z,18.16
2017-08-17T00:12:35.231Z,18.2
2017-08-17T00:12:39.474Z,18.2
2017-08-17T00:12:43.831Z,18.26
2017-08-17T00:12:48.287Z,18.19
2017-08-17T00:12:52.751Z,18.16
2017-08-17T00:12:57.105Z,18.25
2017-08-17T00:13:01.800Z,18.16
2017-08-17T00:13:06.028Z,18.16
2017-08-17T00:13:10.482Z,18.26
2017-08-17T00:13:14.953Z,18.16
2017-08-17T00:13:19.077Z,18.23
2017-08-17T00:13:23.429Z,18.25
2017-08-17T00:13:27.777Z,18.16
2017-08-17T00:13:32.142Z,18.11
2017-08-17T00:13:36.474Z,18.16
2017-08-17T00:13:40.820Z,18.1
2017-08-17T00:13:45.275Z,18.2
2017-08-17T00:13:49.653Z,18.14
2017-08-17T00:13:53.893Z,18.14
2017-08-17T00:13:58.129Z,18.17
2017-08-17T00:14:02.489Z,18.16
2017-08-17T00:14:06.961Z,18.16
2017-08-17T00:14:11.189Z,18.21
2017-08-17T00:14:15.530Z,18.16
2017-08-17T00:14:19.754Z,18.16
2017-08-17T00:14:23.983Z,18.16
2017-08-17T00:14:28.453Z,18.17
2017-08-17T00:14:32.932Z,18.13
2017-08-17T00:14:37.274Z,18.26
2017-08-17T00:14:41.491Z,18.28
2017-08-17T00:14:45.854Z,18.16
2017-08-17T00:14:50.324Z,18.14
2017-08-17T00:14:54.578Z,18.19
2017-08-17T00:14:58.816Z,18.19
2017-08-17T00:15:03.154Z,18.11
2017-08-17T00:15:07.493Z,18.14
2017-08-17T00:15:11.836Z,18.14
2017-08-17T00:15:16.193Z,18.16
2017-08-17T00:15:20.525Z,18.23
2017-08-17T00:15:24.886Z,18.19
2017-08-17T00:15:29.249Z,18.16
2017-08-17T00:15:33.351Z,18.19
2017-08-17T00:15:37.700Z,18.19
2017-08-17T00:15:42.173Z,18.13
2017-08-17T00:15:46.503Z,18.23
2017-08-17T00:15:50.959Z,18.13
2017-08-17T00:15:55.299Z,18.13
2017-08-17T00:15:59.784Z,18.09
2017-08-17T00:16:04.118Z,18.25
2017-08-17T00:16:08.331Z,18.2
2017-08-17T00:16:12.562Z,18.14
2017-08-17T00:16:17.042Z,18.19
2017-08-17T00:16:21.155Z,18.16
2017-08-17T00:16:25.635Z,18.19
2017-08-17T00:16:29.972Z,18.14
2017-08-17T00:16:34.311Z,18.16
2017-08-17T00:16:38.543Z,18.16
2017-08-17T00:16:43.016Z,18.28
2017-08-17T00:16:47.248Z,18.17
2017-08-17T00:16:51.613Z,18.13
2017-08-17T00:16:56.090Z,18.17
2017-08-17T00:17:00.550Z,18.29
2017-08-17T00:17:05.011Z,18.25
2017-08-17T00:17:09.130Z,18.11
2017-08-17T00:17:13.486Z,18.2
2017-08-17T00:17:17.848Z,18.14
2017-08-17T00:17:22.315Z,18.19
2017-08-17T00:17:26.660Z,18.14
2017-08-17T00:17:31.004Z,18.16
2017-08-17T00:17:35.358Z,18.11
2017-08-17T00:17:39.832Z,18.21
2017-08-17T00:17:44.305Z,18.16
2017-08-17T00:17:48.753Z,18.14
2017-08-17T00:17:53.230Z,18.11
2017-08-17T00:17:57.699Z,18.16
2017-08-17T00:18:02.466Z,18.16
2017-08-17T00:18:06.913Z,18.13
2017-08-17T00:18:11.261Z,18.09
2017-08-17T00:18:15.623Z,18.14
2017-08-17T00:18:19.978Z,18.16
2017-08-17T00:18:24.314Z,18.13
2017-08-17T00:18:28.790Z,18.14
2017-08-17T00:18:33.013Z,18.21
2017-08-17T00:18:37.357Z,18.14
2017-08-17T00:18:41.577Z,18.14
2017-08-17T00:18:46.056Z,18.19
2017-08-17T00:18:50.287Z,18.14
2017-08-17T00:18:54.655Z,18.21
2017-08-17T00:18:59.007Z,18.2
2017-08-17T00:19:03.618Z,18.16
2017-08-17T00:19:08.070Z,18.11
2017-08-17T00:19:12.414Z,18.16
2017-08-17T00:19:16.874Z,18.14
2017-08-17T00:19:21.231Z,18.14
2017-08-17T00:19:25.596Z,18.16
2017-08-17T00:19:29.944Z,18.14
2017-08-17T00:19:34.062Z,18.16
2017-08-17T00:19:38.419Z,18.19
2017-08-17T00:19:42.657Z,18.11
2017-08-17T00:19:46.885Z,18.14
2017-08-17T00:19:51.360Z,18.13
2017-08-17T00:19:55.711Z,18.13
2017-08-17T00:20:00.064Z,18.16
2017-08-17T00:20:04.629Z,18.11
2017-08-17T00:20:08.872Z,18.16
2017-08-17T00:20:13.212Z,18.14
2017-08-17T00:20:17.427Z,18.19
2017-08-17T00:20:21.776Z,18.28
2017-08-17T00:20:26.242Z,18.17
2017-08-17T00:20:30.583Z,18.16
2017-08-17T00:20:34.925Z,18.28
2017-08-17T00:20:39.393Z,18.13
2017-08-17T00:20:43.625Z,18.16
2017-08-17T00:20:48.095Z,18.21
2017-08-17T00:20:52.443Z,18.13
2017-08-17T00:20:56.682Z,18.11
2017-08-17T00:21:01.181Z,18.17
2017-08-17T00:21:05.834Z,18.11
2017-08-17T00:21:10.284Z,18.2
2017-08-17T00:21:14.761Z,18.14
2017-08-17T00:21:19.027Z,18.13
2017-08-17T00:21:23.498Z,18.09
2017-08-17T00:21:27.733Z,18.09
2017-08-17T00:21:32.219Z,18.19
2017-08-17T00:21:36.442Z,18.16
2017-08-17T00:21:40.912Z,18.1
2017-08-17T00:21:45.369Z,18.16
2017-08-17T00:21:49.719Z,18.13
2017-08-17T00:21:53.945Z,18.1
2017-08-17T00:21:58.165Z,18.09
2017-08-17T00:22:02.566Z,18.14
2017-08-17T00:22:06.929Z,18.14
2017-08-17T00:22:11.031Z,18.16
2017-08-17T00:22:15.493Z,18.11
2017-08-17T00:22:19.726Z,18.17
2017-08-17T00:22:24.177Z,18.16
2017-08-17T00:22:28.628Z,18.21
2017-08-17T00:22:33.094Z,18.09
2017-08-17T00:22:37.311Z,18.11
2017-08-17T00:22:41.527Z,18.1
2017-08-17T00:22:45.998Z,18.14
2017-08-17T00:22:50.468Z,18.14
2017-08-17T00:22:54.942Z,18.16
2017-08-17T00:22:59.290Z,18.14
2017-08-17T00:23:03.628Z,18.14
2017-08-17T00:23:08.098Z,18.09
2017-08-17T00:23:12.462Z,18.17
2017-08-17T00:23:16.947Z,18.13
2017-08-17T00:23:21.171Z,18.11
2017-08-17T00:23:25.530Z,18.14
2017-08-17T00:23:29.652Z,18.1
2017-08-17T00:23:33.869Z,18.11
2017-08-17T00:23:38.207Z,18.11
2017-08-17T00:23:42.573Z,18.11
2017-08-17T00:23:47.042Z,18.21
2017-08-17T00:23:51.505Z,18.11
2017-08-17T00:23:55.968Z,18.17
2017-08-17T00:24:00.314Z,18.1
2017-08-17T00:24:04.818Z,18.11
2017-08-17T00:24:09.159Z,18.16
2017-08-17T00:24:13.637Z,18.17
2017-08-17T00:24:17.877Z,18.14
2017-08-17T00:24:22.109Z,18.1
2017-08-17T00:24:26.458Z,18.13
2017-08-17T00:24:30.832Z,18.14
2017-08-17T00:24:35.184Z,18.19
2017-08-17T00:24:39.347Z,18.16
2017-08-17T00:24:43.810Z,18.16
2017-08-17T00:24:48.042Z,18.13
2017-08-17T00:24:52.166Z,18.09
2017-08-17T00:24:56.515Z,18.19
2017-08-17T00:25:00.750Z,18.16
2017-08-17T00:25:05.505Z,18.2
2017-08-17T00:25:09.860Z,18.14
2017-08-17T00:25:14.330Z,18.1
2017-08-17T00:25:18.665Z,18.14
2017-08-17T00:25:23.031Z,18.1
2017-08-17T00:25:27.145Z,18.14
2017-08-17T00:25:31.503Z,18.13
2017-08-17T00:25:35.732Z,18.05
2017-08-17T00:25:40.082Z,18.11
2017-08-17T00:25:44.532Z,18.1
2017-08-17T00:25:48.776Z,18.11
2017-08-17T00:25:53.129Z,18.1
2017-08-17T00:25:57.370Z,18.14
2017-08-17T00:26:01.586Z,18.09
2017-08-17T00:26:06.023Z,18.14
2017-08-17T00:26:10.374Z,18.09
2017-08-17T00:26:14.728Z,18.11
2017-08-17T00:26:19.071Z,18.07
2017-08-17T00:26:23.304Z,18.19
2017-08-17T00:26:27.683Z,18.17
2017-08-17T00:26:32.136Z,18.2
2017-08-17T00:26:36.475Z,18.11
2017-08-17T00:26:40.940Z,18.17
2017-08-17T00:26:45.284Z,18.09
2017-08-17T00:26:49.620Z,18.2
2017-08-17T00:26:53.859Z,18.1
2017-08-17T00:26:58.325Z,18.11
2017-08-17T00:27:02.788Z,18.1
2017-08-17T00:27:07.240Z,18.16
2017-08-17T00:27:11.700Z,18.09
2017-08-17T00:27:16.167Z,18.11
2017-08-17T00:27:20.516Z,18.1
2017-08-17T00:27:24.755Z,18.1
2017-08-17T00:27:29.220Z,18.11
2017-08-17T00:27:33.446Z,18.19
2017-08-17T00:27:37.829Z,18.11
2017-08-17T00:27:42.282Z,18.09
2017-08-17T00:27:46.602Z,18.14
2017-08-17T00:27:51.076Z,18.05
2017-08-17T00:27:55.549Z,18.07
2017-08-17T00:28:00.014Z,18.19
2017-08-17T00:28:04.478Z,18.09
2017-08-17T00:28:08.719Z,18.13
2017-08-17T00:28:13.081Z,18.05
2017-08-17T00:28:17.546Z,18.1
2017-08-17T00:28:21.789Z,18.13
2017-08-17T00:28:26.277Z,18.13
2017-08-17T00:28:30.513Z,18.11
2017-08-17T00:28:34.862Z,18.13
2017-08-17T00:28:39.210Z,18.11
2017-08-17T00:28:43.314Z,18.07
2017-08-17T00:28:47.662Z,18.1
2017-08-17T00:28:52.123Z,18.09
2017-08-17T00:28:56.487Z,18.13
2017-08-17T00:29:00.827Z,18.07
2017-08-17T00:29:05.166Z,18.1
2017-08-17T00:29:09.503Z,18.11
2017-08-17T00:29:13.869Z,18.09
2017-08-17T00:29:18.097Z,18.07
2017-08-17T00:29:22.439Z,18.09
2017-08-17T00:29:26.658Z,18.09
2017-08-17T00:29:31.126Z,18.13
2017-08-17T00:29:35.466Z,18.11
2017-08-17T00:29:40.226Z,18.01
2017-08-17T00:29:44.553Z,18.1
2017-08-17T00:29:49.008Z,18.11
2017-08-17T00:29:53.375Z,18.09
2017-08-17T00:29:57.613Z,18.13
2017-08-17T00:30:02.084Z,18.13
2017-08-17T00:30:06.339Z,18.1
2017-08-17T00:30:10.683Z,18.09
2017-08-17T00:30:15.152Z,18.11
2017-08-17T00:30:19.507Z,18.1
2017-08-17T00:30:23.730Z,18.09
2017-08-17T00:30:28.067Z,18.05
2017-08-17T00:30:32.409Z,18.1
2017-08-17T00:30:36.644Z,18.05
2017-08-17T00:30:40.772Z,18.1
2017-08-17T00:30:45.110Z,18.11
2017-08-17T00:30:49.454Z,18.13
2017-08-17T00:30:53.584Z,18.11
2017-08-17T00:30:57.945Z,18.07
2017-08-17T00:31:02.552Z,18.11
2017-08-17T00:31:07.018Z,18.11
2017-08-17T00:31:11.382Z,18.09
2017-08-17T00:31:15.864Z,18.1
2017-08-17T00:31:20.220Z,18.09
2017-08-17T00:31:24.456Z,18.07
2017-08-17T00:31:28.935Z,17.98
2017-08-17T00:31:33.398Z,18.09
2017-08-17T00:31:37.731Z,17.98
2017-08-17T00:31:41.956Z,18.09
2017-08-17T00:31:46.192Z,18.11
2017-08-17T00:31:50.432Z,18.05
2017-08-17T00:31:54.780Z,18.05
2017-08-17T00:31:59.242Z,18.1
2017-08-17T00:32:04.026Z,17.99
2017-08-17T00:32:08.247Z,18.07
2017-08-17T00:32:12.688Z,18.09
2017-08-17T00:32:16.923Z,18.1
2017-08-17T00:32:21.159Z,18.1
2017-08-17T00:32:25.383Z,18.11
2017-08-17T00:32:29.838Z,18.07
2017-08-17T00:32:34.314Z,18.09
2017-08-17T00:32:38.659Z,18.07
2017-08-17T00:32:43.115Z,18.1
2017-08-17T00:32:47.225Z,18.05
2017-08-17T00:32:51.468Z,18.09
2017-08-17T00:32:55.816Z,18.09
2017-08-17T00:33:00.169Z,18.07
2017-08-17T00:33:04.738Z,18.09
2017-08-17T00:33:09.092Z,18.1
2017-08-17T00:33:13.435Z,18.02
2017-08-17T00:33:17.788Z,18.13
2017-08-17T00:33:22.144Z,18.05
2017-08-17T00:33:26.623Z,18.01
2017-08-17T00:33:30.847Z,17.99
2017-08-17T00:33:35.312Z,18.02
2017-08-17T00:33:39.406Z,18.07
2017-08-17T00:33:43.876Z,18.07
2017-08-17T00:33:48.100Z,18.1
2017-08-17T00:33:52.562Z,18.01
2017-08-17T00:33:57.033Z,18.09
2017-08-17T00:34:01.494Z,17.96
2017-08-17T00:34:05.826Z,17.99
2017-08-17T00:34:10.289Z,18.07
2017-08-17T00:34:14.767Z,18.11
2017-08-17T00:34:19.003Z,18.01
2017-08-17T00:34:23.342Z,18.1
2017-08-17T00:34:27.580Z,18.11
2017-08-17T00:34:32.056Z,18.11
2017-08-17T00:34:36.284Z,17.98
2017-08-17T00:34:40.756Z,17.92
2017-08-17T00:34:45.098Z,17.95
2017-08-17T00:34:49.555Z,18.07
2017-08-17T00:34:54.022Z,17.99
2017-08-17T00:34:58.248Z,18.05
2017-08-17T00:35:02.361Z,18.02
2017-08-17T00:35:06.590Z,18.11
2017-08-17T00:35:10.981Z,17.95
2017-08-17T00:35:15.327Z,17.92
2017-08-17T00:35:19.674Z,18.01
2017-08-17T00:35:24.140Z,18.01
2017-08-17T00:35:28.481Z,17.96
2017-08-17T00:35:32.937Z,17.92
2017-08-17T00:35:37.278Z,17.92
2017-08-17T00:35:41.743Z,18.05
2017-08-17T00:35:46.078Z,17.91
2017-08-17T00:35:50.310Z,17.92
2017-08-17T00:35:54.662Z,17.94
2017-08-17T00:35:59.132Z,17.96
2017-08-17T00:36:03.602Z,18.01
2017-08-17T00:36:08.064Z,17.98
2017-08-17T00:36:12.403Z,18.01
2017-08-17T00:36:16.661Z,17.96
2017-08-17T00:36:21.014Z,17.99
2017-08-17T00:36:25.361Z,17.99
2017-08-17T00:36:29.591Z,17.92
2017-08-17T00:36:33.948Z,18.02
2017-08-17T00:36:38.173Z,18.04
2017-08-17T00:36:42.642Z,18.02
2017-08-17T00:36:46.874Z,17.98
2017-08-17T00:36:51.234Z,17.92
2017-08-17T00:36:55.578Z,17.99
2017-08-17T00:37:00.041Z,17.99
2017-08-17T00:37:04.521Z,18.01
2017-08-17T00:37:08.889Z,18.01
2017-08-17T00:37:13.350Z,18.01
2017-08-17T00:37:17.692Z,18.02
2017-08-17T00:37:22.032Z,17.96
2017-08-17T00:37:26.280Z,18.02
2017-08-17T00:37:30.750Z,17.99
2017-08-17T00:37:35.225Z,17.99
2017-08-17T00:37:39.345Z,17.99
2017-08-17T00:37:43.690Z,17.96
2017-08-17T00:37:48.031Z,17.96
2017-08-17T00:37:52.475Z,17.94
2017-08-17T00:37:56.946Z,17.99
2017-08-17T00:38:01.282Z,18.01
2017-08-17T00:38:05.626Z,17.96
2017-08-17T00:38:10.105Z,18.04
2017-08-17T00:38:14.567Z,17.96
2017-08-17T00:38:18.797Z,17.99
2017-08-17T00:38:23.259Z,18.01
2017-08-17T00:38:27.609Z,18.01
2017-08-17T00:38:31.845Z,17.99
2017-08-17T00:38:36.178Z,17.99
2017-08-17T00:38:40.533Z,17.95
2017-08-17T00:38:45.006Z,17.92
2017-08-17T00:38:49.385Z,17.96
2017-08-17T00:38:53.740Z,18.01
2017-08-17T00:38:58.104Z,17.94
2017-08-17T00:39:02.338Z,17.98
2017-08-17T00:39:06.793Z,18.01
2017-08-17T00:39:11.142Z,17.98
2017-08-17T00:39:15.372Z,17.98
2017-08-17T00:39:19.485Z,17.99
2017-08-17T00:39:23.938Z,17.94
2017-08-17T00:39:28.059Z,17.94
2017-08-17T00:39:32.293Z,17.94
2017-08-17T00:39:36.641Z,17.99
2017-08-17T00:39:40.979Z,17.99
2017-08-17T00:39:45.206Z,17.98
2017-08-17T00:39:49.556Z,17.96
2017-08-17T00:39:53.913Z,18.01
2017-08-17T00:39:58.271Z,17.95
2017-08-17T00:40:02.491Z,17.98
2017-08-17T00:40:06.722Z,17.96
2017-08-17T00:40:11.086Z,17.98
2017-08-17T00:40:15.446Z,17.94
2017-08-17T00:40:19.790Z,18.02
2017-08-17T00:40:24.140Z,17.98
2017-08-17T00:40:28.479Z,17.99
2017-08-17T00:40:32.946Z,18.01
2017-08-17T00:40:37.290Z,17.95
2017-08-17T00:40:41.641Z,17.98
2017-08-17T00:40:46.149Z,17.99
2017-08-17T00:40:50.622Z,17.99
2017-08-17T00:40:54.858Z,17.98
2017-08-17T00:40:59.325Z,17.96
2017-08-17T00:41:03.719Z,17.98
2017-08-17T00:41:08.174Z,17.99
2017-08-17T00:41:12.515Z,17.98
2017-08-17T00:41:16.979Z,17.98
2017-08-17T00:41:21.330Z,17.92
2017-08-17T00:41:25.666Z,17.98
2017-08-17T00:41:30.019Z,18.04
2017-08-17T00:41:34.372Z,17.95
2017-08-17T00:41:38.612Z,17.98
2017-08-17T00:41:43.065Z,17.95
2017-08-17T00:41:47.531Z,17.95
2017-08-17T00:41:51.641Z,18.01
2017-08-17T00:41:55.861Z,18.04
2017-08-17T00:42:00.323Z,17.98
2017-08-17T00:42:04.686Z,18.02
2017-08-17T00:42:09.041Z,17.98
2017-08-17T00:42:13.528Z,17.92
2017-08-17T00:42:17.990Z,17.92
2017-08-17T00:42:22.219Z,18.05
2017-08-17T00:42:26.684Z,17.99
2017-08-17T00:42:31.148Z,17.98
2017-08-17T00:42:35.244Z,17.96
2017-08-17T00:42:39.349Z,18.01
2017-08-17T00:42:43.722Z,17.98
2017-08-17T00:42:48.070Z,17.98
2017-08-17T00:42:52.403Z,18.01
2017-08-17T00:42:56.624Z,17.95
2017-08-17T00:43:01.110Z,17.99
2017-08-17T00:43:05.881Z,17.99
2017-08-17T00:43:10.346Z,17.96
2017-08-17T00:43:14.817Z,17.96
2017-08-17T00:43:18.926Z,17.98
2017-08-17T00:43:23.370Z,18.01
2017-08-17T00:43:27.615Z,18.01
2017-08-17T00:43:32.075Z,17.99
2017-08-17T00:43:36.573Z,18.02
2017-08-17T00:43:41.050Z,17.99
2017-08-17T00:43:45.385Z,17.95
2017-08-17T00:43:49.859Z,17.98
2017-08-17T00:43:54.333Z,17.99
2017-08-17T00:43:58.690Z,17.99
2017-08-17T00:44:03.352Z,17.98
2017-08-17T00:44:07.827Z,17.96
2017-08-17T00:44:12.060Z,18.01
2017-08-17T00:44:16.529Z,17.95
2017-08-17T00:44:20.631Z,18.02
2017-08-17T00:44:25.129Z,18.02
2017-08-17T00:44:29.362Z,17.99
2017-08-17T00:44:33.716Z,17.99
2017-08-17T00:44:37.932Z,18.01
2017-08-17T00:44:42.410Z,18.02
2017-08-17T00:44:46.877Z,17.94
2017-08-17T00:44:51.218Z,17.98
2017-08-17T00:44:55.665Z,17.98
2017-08-17T00:44:59.902Z,17.92
2017-08-17T00:45:04.246Z,17.91
2017-08-17T00:45:08.711Z,18.01
2017-08-17T00:45:13.193Z,17.99
2017-08-17T00:45:17.670Z,17.99
2017-08-17T00:45:21.769Z,18.02
2017-08-17T00:45:26.109Z,17.96
2017-08-17T00:45:30.601Z,17.87
2017-08-17T00:45:35.088Z,18.01
2017-08-17T00:45:39.449Z,17.89
2017-08-17T00:45:43.924Z,17.94
2017-08-17T00:45:48.394Z,17.92
2017-08-17T00:45:52.765Z,17.95
2017-08-17T00:45:56.995Z,17.87
2017-08-17T00:46:01.219Z,17.92
2017-08-17T00:46:05.705Z,17.94
2017-08-17T00:46:09.929Z,17.91
2017-08-17T00:46:14.379Z,17.99
2017-08-17T00:46:18.731Z,17.92
2017-08-17T00:46:23.070Z,17.94
2017-08-17T00:46:27.417Z,17.95
2017-08-17T00:46:31.746Z,17.96
2017-08-17T00:46:36.091Z,17.96
2017-08-17T00:46:40.466Z,17.94
2017-08-17T00:46:44.814Z,17.98
2017-08-17T00:46:49.287Z,17.95
2017-08-17T00:46:53.630Z,17.94
2017-08-17T00:46:57.993Z,17.95
2017-08-17T00:47:02.226Z,17.92
2017-08-17T00:47:06.578Z,17.86
2017-08-17T00:47:10.818Z,17.89
2017-08-17T00:47:15.302Z,17.94
2017-08-17T00:47:19.534Z,17.91
2017-08-17T00:47:23.882Z,17.91
2017-08-17T00:47:28.342Z,17.92
2017-08-17T00:47:32.803Z,17.94
2017-08-17T00:47:37.272Z,17.86
2017-08-17T00:47:41.486Z,17.91
2017-08-17T00:47:45.957Z,17.87
2017-08-17T00:47:50.435Z,17.92
2017-08-17T00:47:54.899Z,17.91
2017-08-17T00:47:59.255Z,17.84
2017-08-17T00:48:04.075Z,17.87
2017-08-17T00:48:08.085Z,17.92
2017-08-17T00:48:12.431Z,17.91
2017-08-17T00:48:16.908Z,17.87
2017-08-17T00:48:21.281Z,17.94
2017-08-17T00:48:25.744Z,17.91
2017-08-17T00:48:29.962Z,17.86
2017-08-17T00:48:34.196Z,17.87
2017-08-17T00:48:38.562Z,17.91
2017-08-17T00:48:43.021Z,17.92
2017-08-17T00:48:47.259Z,17.92
2017-08-17T00:48:51.714Z,17.89
2017-08-17T00:48:56.182Z,17.89
2017-08-17T00:49:00.517Z,17.91
2017-08-17T00:49:04.975Z,17.87
2017-08-17T00:49:09.338Z,17.87
2017-08-17T00:49:13.808Z,17.94
2017-08-17T00:49:18.037Z,17.89
2017-08-17T00:49:22.508Z,17.87
2017-08-17T00:49:26.747Z,17.86
2017-08-17T00:49:31.217Z,17.89
2017-08-17T00:49:35.565Z,17.87
2017-08-17T00:49:39.807Z,17.91
2017-08-17T00:49:44.049Z,17.86
2017-08-17T00:49:48.503Z,17.95
2017-08-17T00:49:52.841Z,17.91
2017-08-17T00:49:57.322Z,17.91
2017-08-17T00:50:01.561Z,17.87
2017-08-17T00:50:06.230Z,17.87
2017-08-17T00:50:10.695Z,17.89
2017-08-17T00:50:15.175Z,17.86
2017-08-17T00:50:19.525Z,17.86
2017-08-17T00:50:23.986Z,17.81
2017-08-17T00:50:28.452Z,17.84
2017-08-17T00:50:32.812Z,17.86
2017-08-17T00:50:37.287Z,17.86
2017-08-17T00:50:41.628Z,17.81
2017-08-17T00:50:46.087Z,17.87
2017-08-17T00:50:50.465Z,17.86
2017-08-17T00:50:54.942Z,17.86
2017-08-17T00:50:59.278Z,17.89
2017-08-17T00:51:04.031Z,17.91
2017-08-17T00:51:08.515Z,17.86
2017-08-17T00:51:12.853Z,17.92
2017-08-17T00:51:17.318Z,17.79
2017-08-17T00:51:21.686Z,17.83
2017-08-17T00:51:26.077Z,17.86
2017-08-17T00:51:30.406Z,17.86
2017-08-17T00:51:34.748Z,17.86
2017-08-17T00:51:38.962Z,17.87
2017-08-17T00:51:43.306Z,17.87
2017-08-17T00:51:47.786Z,17.89
2017-08-17T00:51:52.147Z,17.86
2017-08-17T00:51:56.603Z,17.8
2017-08-17T00:52:00.961Z,17.84
2017-08-17T00:52:05.317Z,17.83
2017-08-17T00:52:09.543Z,17.86
2017-08-17T00:52:13.889Z,17.86
2017-08-17T00:52:18.131Z,17.89
2017-08-17T00:52:22.606Z,17.86
2017-08-17T00:52:27.065Z,17.86
2017-08-17T00:52:31.413Z,17.89
2017-08-17T00:52:35.787Z,17.84
2017-08-17T00:52:40.253Z,17.86
2017-08-17T00:52:44.723Z,17.86
2017-08-17T00:52:49.056Z,17.91
2017-08-17T00:52:53.429Z,17.92
2017-08-17T00:52:57.528Z,17.87
2017-08-17T00:53:01.994Z,17.92
2017-08-17T00:53:06.234Z,17.94
2017-08-17T00:53:10.701Z,17.92
2017-08-17T00:53:15.170Z,17.92
2017-08-17T00:53:19.516Z,17.8
2017-08-17T00:53:23.984Z,17.86
2017-08-17T00:53:28.106Z,17.86
2017-08-17T00:53:32.452Z,17.83
2017-08-17T00:53:36.912Z,17.91
2017-08-17T00:53:41.389Z,17.89
2017-08-17T00:53:45.618Z,17.94
2017-08-17T00:53:50.084Z,17.8
2017-08-17T00:53:54.441Z,17.89
2017-08-17T00:53:58.797Z,17.8
2017-08-17T00:54:03.238Z,17.87
2017-08-17T00:54:07.708Z,17.86
2017-08-17T00:54:11.933Z,17.89
2017-08-17T00:54:16.304Z,17.91
2017-08-17T00:54:20.429Z,17.96
2017-08-17T00:54:24.900Z,17.81
2017-08-17T00:54:29.235Z,17.84
2017-08-17T00:54:33.454Z,17.86
2017-08-17T00:54:37.720Z,17.91
2017-08-17T00:54:42.066Z,17.86
2017-08-17T00:54:46.731Z,17.89
2017-08-17T00:54:50.965Z,17.89
2017-08-17T00:54:55.458Z,17.89
2017-08-17T00:54:59.821Z,17.87
2017-08-17T00:55:04.296Z,17.81
2017-08-17T00:55:08.630Z,17.83
2017-08-17T00:55:13.114Z,17.89
2017-08-17T00:55:17.568Z,17.86
2017-08-17T00:55:21.793Z,17.89
2017-08-17T00:55:26.139Z,17.91
2017-08-17T00:55:30.479Z,17.91
2017-08-17T00:55:34.948Z,17.91
2017-08-17T00:55:39.399Z,17.87
2017-08-17T00:55:43.873Z,17.89
2017-08-17T00:55:47.987Z,17.87
2017-08-17T00:55:52.465Z,17.86
2017-08-17T00:55:56.940Z,17.87
2017-08-17T00:56:01.410Z,17.91
2017-08-17T00:56:06.224Z,17.87
2017-08-17T00:56:10.330Z,17.86
2017-08-17T00:56:14.821Z,17.86
2017-08-17T00:56:19.193Z,17.87
2017-08-17T00:56:23.543Z,17.84